createdAt,value
2019-04-06T00:02:29.098Z,17.57
2019-04-06T00:04:58.855Z,13.38
2019-04-06T00:07:28.528Z,16.10
2019-04-06T00:09:58.175Z,13.28
2019-04-06T00:12:27.870Z,14.47
2019-04-06T00:14:57.680Z,16.90
2019-04-06T00:17:27.412Z,11.95
2019-04-06T00:19:57.133Z,14.43
2019-04-06T00:22:26.838Z,11.75
2019-04-06T00:24:56.476Z,12.73
2019-04-06T00:27:26.212Z,12.20
2019-04-06T00:29:55.902Z,13.28
2019-04-06T00:32:32.519Z,11.97
2019-04-06T00:35:02.256Z,16.05
2019-04-06T00:37:31.888Z,11.80
2019-04-06T00:40:01.577Z,13.03
2019-04-06T00:42:31.287Z,11.60
2019-04-06T00:45:00.995Z,12.70
2019-04-06T00:47:30.696Z,13.55
2019-04-06T00:50:00.206Z,11.00
2019-04-06T00:52:29.921Z,12.47
2019-04-06T00:54:59.478Z,11.45
2019-04-06T00:57:29.245Z,11.97
2019-04-06T00:59:58.880Z,11.22
2019-04-06T01:02:28.574Z,10.48
2019-04-06T01:04:59.298Z,12.35
2019-04-06T01:07:29.037Z,10.72
2019-04-06T01:09:58.722Z,11.63
2019-04-06T01:12:28.430Z,11.30
2019-04-06T01:14:58.136Z,11.18
2019-04-06T01:17:27.846Z,12.15
2019-04-06T01:19:57.492Z,19.85
2019-04-06T01:22:27.170Z,10.20
2019-04-06T01:24:56.686Z,12.65
2019-04-06T01:27:26.113Z,14.38
2019-04-06T01:29:55.563Z,12.15
2019-04-06T01:32:25.027Z,12.43
2019-04-06T01:34:54.465Z,13.88
2019-04-06T01:37:23.923Z,12.18
2019-04-06T01:39:53.343Z,10.93
2019-04-06T01:42:22.837Z,10.20
2019-04-06T01:44:52.252Z,11.50
2019-04-06T01:47:21.785Z,11.75
2019-04-06T01:49:51.242Z,12.78
2019-04-06T01:52:20.725Z,11.22
2019-04-06T01:54:50.170Z,12.68
2019-04-06T01:57:19.589Z,12.50
2019-04-06T01:59:49.011Z,10.58
2019-04-06T02:02:28.487Z,10.93
2019-04-06T02:04:58.300Z,11.90
2019-04-06T02:07:27.948Z,11.00
2019-04-06T02:09:57.348Z,12.70
2019-04-06T02:12:27.597Z,13.13
2019-04-06T02:14:57.351Z,11.75
2019-04-06T02:17:26.976Z,10.53
2019-04-06T02:19:56.667Z,11.38
2019-04-06T02:22:26.372Z,12.50
2019-04-06T02:24:56.057Z,12.95
2019-04-06T02:27:25.798Z,11.18
2019-04-06T02:30:29.362Z,9.28
2019-04-06T02:33:17.633Z,9.93
2019-04-06T02:35:55.100Z,11.18
2019-04-06T02:38:46.547Z,13.40
2019-04-06T02:41:29.511Z,11.73
2019-04-06T02:43:58.937Z,11.12
2019-04-06T02:46:30.868Z,12.20
2019-04-06T02:48:59.811Z,11.25
2019-04-06T02:51:29.239Z,10.78
2019-04-06T02:53:58.722Z,11.33
2019-04-06T02:56:28.124Z,12.05
2019-04-06T02:58:57.538Z,14.25
2019-04-06T03:01:26.977Z,12.53
2019-04-06T03:03:56.523Z,10.72
2019-04-06T03:06:25.912Z,10.08
2019-04-06T03:08:55.336Z,9.55
2019-04-06T03:11:24.770Z,11.65
2019-04-06T03:13:54.218Z,12.15
2019-04-06T03:16:23.662Z,10.08
2019-04-06T03:18:53.145Z,10.72
2019-04-06T03:21:22.595Z,11.83
2019-04-06T03:23:52.541Z,9.25
2019-04-06T03:26:22.174Z,11.73
2019-04-06T03:28:51.592Z,10.70
2019-04-06T03:31:26.097Z,11.50
2019-04-06T03:33:52.701Z,10.53
2019-04-06T03:36:22.214Z,11.00
2019-04-06T03:38:51.658Z,12.65
2019-04-06T03:41:21.132Z,10.80
2019-04-06T03:43:50.745Z,10.28
2019-04-06T03:46:20.345Z,10.25
2019-04-06T03:48:49.899Z,10.15
2019-04-06T03:51:19.344Z,10.38
2019-04-06T03:53:48.762Z,10.72
2019-04-06T03:56:18.181Z,9.00
2019-04-06T03:58:47.607Z,13.35
2019-04-06T04:01:17.022Z,11.53
2019-04-06T04:03:46.896Z,11.10
2019-04-06T04:06:17.046Z,9.88
2019-04-06T04:08:46.690Z,11.03
2019-04-06T04:11:16.111Z,12.85
2019-04-06T04:13:45.653Z,10.48
2019-04-06T04:16:15.252Z,11.90
2019-04-06T04:18:44.672Z,9.55
2019-04-06T04:21:14.099Z,11.05
2019-04-06T04:23:43.549Z,15.08
2019-04-06T04:26:13.010Z,11.00
2019-04-06T04:28:42.783Z,13.00
2019-04-06T04:31:12.235Z,11.38
2019-04-06T04:33:41.668Z,11.90
2019-04-06T04:36:11.236Z,10.30
2019-04-06T04:38:40.742Z,11.93
2019-04-06T04:41:10.149Z,9.60
2019-04-06T04:43:40.085Z,14.53
2019-04-06T04:46:09.731Z,10.25
2019-04-06T04:48:39.208Z,14.28
2019-04-06T04:51:08.694Z,15.72
2019-04-06T04:53:38.377Z,13.55
2019-04-06T04:56:07.756Z,18.02
2019-04-06T04:58:37.194Z,18.12
2019-04-06T05:01:06.756Z,14.70
2019-04-06T05:03:36.210Z,27.10
2019-04-06T05:06:05.897Z,21.00
2019-04-06T05:08:35.294Z,23.50
2019-04-06T05:11:05.293Z,16.60
2019-04-06T05:13:34.711Z,18.07
2019-04-06T05:16:13.518Z,18.73
2019-04-06T05:18:42.950Z,16.02
2019-04-06T05:21:12.418Z,18.77
2019-04-06T05:23:41.838Z,18.07
2019-04-06T05:26:11.295Z,17.95
2019-04-06T05:28:40.787Z,18.48
2019-04-06T05:31:10.211Z,18.82
2019-04-06T05:33:39.639Z,54.33
2019-04-06T05:36:09.077Z,50.80
2019-04-06T05:38:38.691Z,39.67
2019-04-06T05:41:08.113Z,36.25
2019-04-06T05:43:37.559Z,29.32
2019-04-06T05:46:07.010Z,37.63
2019-04-06T05:48:37.011Z,32.50
2019-04-06T05:51:06.610Z,26.07
2019-04-06T05:53:36.032Z,28.32
2019-04-06T05:56:05.478Z,23.12
2019-04-06T05:58:35.090Z,26.52
2019-04-06T06:01:04.538Z,25.02
2019-04-06T06:03:33.951Z,33.00
2019-04-06T06:06:03.399Z,27.50
2019-04-06T06:08:32.828Z,28.87
2019-04-06T06:11:02.277Z,28.62
2019-04-06T06:13:31.708Z,32.88
2019-04-06T06:16:01.255Z,28.57
2019-04-06T06:18:30.691Z,24.37
2019-04-06T06:21:00.178Z,24.30
2019-04-06T06:23:29.610Z,26.07
2019-04-06T06:25:59.103Z,26.20
2019-04-06T06:28:28.508Z,25.08
2019-04-06T06:30:57.959Z,25.52
2019-04-06T06:33:27.632Z,23.38
2019-04-06T06:35:57.128Z,23.90
2019-04-06T06:38:26.596Z,24.23
2019-04-06T06:40:56.032Z,21.40
2019-04-06T06:43:25.605Z,21.95
2019-04-06T06:45:54.975Z,21.45
2019-04-06T06:48:24.438Z,24.98
2019-04-06T06:50:53.857Z,25.40
2019-04-06T06:53:23.441Z,20.68
2019-04-06T06:55:53.458Z,26.12
2019-04-06T06:58:25.520Z,25.48
2019-04-06T07:00:54.448Z,24.85
2019-04-06T07:03:23.893Z,19.70
2019-04-06T07:05:53.306Z,26.42
2019-04-06T07:08:22.768Z,25.80
2019-04-06T07:10:52.217Z,23.90
2019-04-06T07:13:21.678Z,23.45
2019-04-06T07:15:51.114Z,22.87
2019-04-06T07:18:20.548Z,26.90
2019-04-06T07:20:50.306Z,24.92
2019-04-06T07:23:19.948Z,22.73
2019-04-06T07:25:57.483Z,24.70
2019-04-06T07:28:20.511Z,24.43
2019-04-06T07:30:49.933Z,22.85
2019-04-06T07:33:19.374Z,21.12
2019-04-06T07:35:48.818Z,26.23
2019-04-06T07:38:18.251Z,24.70
2019-04-06T07:40:47.718Z,24.57
2019-04-06T07:43:17.181Z,27.15
2019-04-06T07:45:46.644Z,22.87
2019-04-06T07:48:16.076Z,24.57
2019-04-06T07:50:45.563Z,22.20
2019-04-06T07:53:15.100Z,25.40
2019-04-06T07:55:44.493Z,24.43
2019-04-06T07:58:13.956Z,25.85
2019-04-06T08:00:43.412Z,22.85
2019-04-06T08:03:12.871Z,22.85
2019-04-06T08:05:42.269Z,25.23
2019-04-06T08:08:11.747Z,23.35
2019-04-06T08:10:41.209Z,22.62
2019-04-06T08:13:10.827Z,26.82
2019-04-06T08:15:40.322Z,25.65
2019-04-06T08:18:09.762Z,24.65
2019-04-06T08:20:39.249Z,23.22
2019-04-06T08:23:08.667Z,24.47
2019-04-06T08:25:38.085Z,23.32
2019-04-06T08:28:07.533Z,21.33
2019-04-06T08:30:45.329Z,23.73
2019-04-06T08:33:08.164Z,21.05
2019-04-06T08:35:37.620Z,23.32
2019-04-06T08:38:07.101Z,21.75
2019-04-06T08:40:36.528Z,21.20
2019-04-06T08:43:05.969Z,22.13
2019-04-06T08:45:35.421Z,22.40
2019-04-06T08:48:04.891Z,21.82
2019-04-06T08:50:34.304Z,23.27
2019-04-06T08:53:03.742Z,22.05
2019-04-06T08:55:33.181Z,20.70
2019-04-06T08:58:02.698Z,23.83
2019-04-06T09:00:32.133Z,21.62
2019-04-06T09:03:01.598Z,23.87
2019-04-06T09:05:31.173Z,21.90
2019-04-06T09:08:00.558Z,25.43
2019-04-06T09:10:30.045Z,21.30
2019-04-06T09:12:59.470Z,25.30
2019-04-06T09:15:28.974Z,27.15
2019-04-06T09:17:58.411Z,22.82
2019-04-06T09:20:26.106Z,19.87
2019-04-06T09:22:55.570Z,24.85
2019-04-06T09:25:25.029Z,26.02
2019-04-06T09:27:54.559Z,27.15
2019-04-06T09:30:23.976Z,23.30
2019-04-06T09:32:53.516Z,25.23
2019-04-06T09:35:22.943Z,24.23
2019-04-06T09:37:52.497Z,23.05
2019-04-06T09:40:21.930Z,25.12
2019-04-06T09:42:51.447Z,24.02
2019-04-06T09:45:38.089Z,29.10
2019-04-06T09:48:35.473Z,20.62
2019-04-06T09:51:26.566Z,26.05
2019-04-06T09:54:18.230Z,23.75
2019-04-06T09:57:18.664Z,21.48
2019-04-06T09:59:58.868Z,22.00
2019-04-06T10:02:44.183Z,28.38
2019-04-06T10:05:26.399Z,21.35
2019-04-06T10:08:14.688Z,24.67
2019-04-06T10:11:11.756Z,22.45
2019-04-06T10:14:09.244Z,23.27
2019-04-06T10:17:05.472Z,23.38
2019-04-06T10:19:41.640Z,21.55
2019-04-06T10:22:29.951Z,25.35
2019-04-06T10:25:16.791Z,23.07
2019-04-06T10:28:06.280Z,22.50
2019-04-06T10:30:53.809Z,19.15
2019-04-06T10:33:42.473Z,21.60
2019-04-06T10:36:43.000Z,21.30
2019-04-06T10:39:21.074Z,24.40
2019-04-06T10:41:59.654Z,23.15
2019-04-06T10:44:54.108Z,22.80
2019-04-06T10:47:45.302Z,22.17
2019-04-06T10:50:36.546Z,21.55
2019-04-06T10:53:39.713Z,20.57
2019-04-06T10:56:26.616Z,22.65
2019-04-06T10:59:06.831Z,24.05
2019-04-06T11:01:53.443Z,20.35
2019-04-06T11:04:39.789Z,19.73
2019-04-06T11:07:26.507Z,21.80
2019-04-06T11:10:14.792Z,21.15
2019-04-06T11:13:12.370Z,20.45
2019-04-06T11:15:59.087Z,19.17
2019-04-06T11:18:59.210Z,18.98
2019-04-06T11:22:05.430Z,17.50
2019-04-06T11:24:56.611Z,28.12
2019-04-06T11:27:50.642Z,24.35
2019-04-06T11:30:26.416Z,22.25
2019-04-06T11:33:32.894Z,24.43
2019-04-06T11:36:19.804Z,23.18
2019-04-06T11:39:06.557Z,23.95
2019-04-06T11:41:54.715Z,23.18
2019-04-06T11:44:41.743Z,24.27
2019-04-06T11:47:45.270Z,26.00
2019-04-06T11:50:33.554Z,25.08
2019-04-06T11:53:12.050Z,24.27
2019-04-06T11:56:00.459Z,25.48
2019-04-06T11:58:48.913Z,22.52
2019-04-06T12:01:29.435Z,24.60
2019-04-06T12:04:08.700Z,25.23
2019-04-06T12:07:03.289Z,26.37
2019-04-06T12:10:09.500Z,23.10
2019-04-06T12:12:46.066Z,31.77
2019-04-06T12:15:40.230Z,36.55
2019-04-06T12:18:37.314Z,43.65
2019-04-06T12:21:11.810Z,32.40
2019-04-06T12:24:02.858Z,32.65
2019-04-06T12:26:49.641Z,30.77
2019-04-06T12:29:41.716Z,34.98
2019-04-06T12:32:28.917Z,32.48
2019-04-06T12:35:17.173Z,40.20
2019-04-06T12:37:59.303Z,38.63
2019-04-06T12:40:50.316Z,37.67
2019-04-06T12:43:37.030Z,35.88
2019-04-06T12:46:18.330Z,32.67
2019-04-06T12:49:06.594Z,33.00
2019-04-06T12:51:51.822Z,33.98
2019-04-06T12:54:48.203Z,32.55
2019-04-06T12:57:35.011Z,34.15
2019-04-06T13:00:19.506Z,33.42
2019-04-06T13:03:10.377Z,30.97
2019-04-06T13:05:57.757Z,31.10
2019-04-06T13:08:33.787Z,31.85
2019-04-06T13:11:34.302Z,32.65
2019-04-06T13:14:40.556Z,30.48
2019-04-06T13:17:27.550Z,35.40
2019-04-06T13:20:25.015Z,30.02
2019-04-06T13:23:05.986Z,35.78
2019-04-06T13:25:53.087Z,30.30
2019-04-06T13:28:39.014Z,31.25
2019-04-06T13:31:39.463Z,31.20
2019-04-06T13:34:33.521Z,29.95
2019-04-06T13:37:20.174Z,31.25
2019-04-06T13:40:06.847Z,29.52
2019-04-06T13:42:55.119Z,30.25
2019-04-06T13:45:35.996Z,28.60
2019-04-06T13:48:20.662Z,27.87
2019-04-06T13:50:57.218Z,28.98
2019-04-06T13:53:48.293Z,27.58
2019-04-06T13:56:42.533Z,27.10
2019-04-06T13:59:33.857Z,27.75
2019-04-06T14:02:10.480Z,26.90
2019-04-06T14:05:01.353Z,26.52
2019-04-06T14:07:58.824Z,27.55
2019-04-06T14:10:41.085Z,25.05
2019-04-06T14:13:29.351Z,27.70
2019-04-06T14:16:17.781Z,28.45
2019-04-06T14:19:15.297Z,27.52
2019-04-06T14:22:01.432Z,28.52
2019-04-06T14:24:41.842Z,26.27
2019-04-06T14:27:20.459Z,27.62
2019-04-06T14:30:00.069Z,28.10
2019-04-06T14:32:54.793Z,31.80
2019-04-06T14:35:46.074Z,40.35
2019-04-06T14:38:33.350Z,31.82
2019-04-06T14:41:20.041Z,34.75
2019-04-06T14:44:07.531Z,38.00
2019-04-06T14:47:05.104Z,37.05
2019-04-06T14:49:52.054Z,32.50
2019-04-06T14:52:33.431Z,30.02
2019-04-06T14:55:40.156Z,35.40
2019-04-06T14:58:24.913Z,31.37
2019-04-06T15:01:18.957Z,27.30
2019-04-06T15:04:07.445Z,29.63
2019-04-06T15:07:09.673Z,32.05
2019-04-06T15:09:48.893Z,29.07
2019-04-06T15:12:36.088Z,26.75
2019-04-06T15:15:43.196Z,28.62
2019-04-06T15:18:26.131Z,24.55
2019-04-06T15:21:08.702Z,34.18
2019-04-06T15:24:09.346Z,32.03
2019-04-06T15:27:09.939Z,28.77
2019-04-06T15:30:01.380Z,33.02
2019-04-06T15:32:44.972Z,61.15
2019-04-06T15:35:36.280Z,28.70
2019-04-06T15:38:18.099Z,26.75
2019-04-06T15:41:05.007Z,29.92
2019-04-06T15:43:59.508Z,31.90
2019-04-06T15:46:56.870Z,27.70
2019-04-06T15:49:44.996Z,33.73
2019-04-06T15:52:45.840Z,28.42
2019-04-06T15:55:32.934Z,34.43
2019-04-06T15:58:30.768Z,29.98
2019-04-06T16:01:25.018Z,30.10
2019-04-06T16:04:13.506Z,30.32
2019-04-06T16:07:00.586Z,34.10
2019-04-06T16:09:44.316Z,33.60
2019-04-06T16:12:23.992Z,27.52
2019-04-06T16:15:10.545Z,25.75
2019-04-06T16:17:49.628Z,29.77
2019-04-06T16:20:39.128Z,26.62
2019-04-06T16:23:24.272Z,28.65
2019-04-06T16:26:21.506Z,30.10
2019-04-06T16:29:13.212Z,28.23
2019-04-06T16:32:10.855Z,27.22
2019-04-06T16:34:56.427Z,26.25
2019-04-06T16:37:53.494Z,28.00
2019-04-06T16:40:38.022Z,25.92
2019-04-06T16:43:26.637Z,27.00
2019-04-06T16:46:03.399Z,25.25
2019-04-06T16:48:57.707Z,25.57
2019-04-06T16:51:58.213Z,26.33
2019-04-06T16:54:47.347Z,24.12
2019-04-06T16:57:39.715Z,28.62
2019-04-06T17:00:28.126Z,26.75
2019-04-06T17:03:12.554Z,27.42
2019-04-06T17:05:59.289Z,28.02
2019-04-06T17:08:35.611Z,25.43
2019-04-06T17:11:27.042Z,28.70
2019-04-06T17:14:27.430Z,24.32
2019-04-06T17:17:13.891Z,25.75
2019-04-06T17:20:11.272Z,33.70
2019-04-06T17:22:57.597Z,28.00
2019-04-06T17:25:35.631Z,24.57
2019-04-06T17:28:23.516Z,26.52
2019-04-06T17:31:10.559Z,23.80
2019-04-06T17:33:50.824Z,32.70
2019-04-06T17:36:42.187Z,22.35
2019-04-06T17:39:28.942Z,21.07
2019-04-06T17:42:23.511Z,25.40
2019-04-06T17:45:10.593Z,22.50
2019-04-06T17:47:55.291Z,25.12
2019-04-06T17:50:37.691Z,31.00
2019-04-06T17:53:24.023Z,23.18
2019-04-06T17:56:10.693Z,23.70
2019-04-06T17:59:02.063Z,23.80
2019-04-06T18:01:53.384Z,21.10
2019-04-06T18:04:43.653Z,22.13
2019-04-06T18:07:36.029Z,22.02
2019-04-06T18:10:24.793Z,23.45
2019-04-06T18:13:10.350Z,21.85
2019-04-06T18:15:39.803Z,23.73
2019-04-06T18:18:09.383Z,22.35
2019-04-06T18:20:38.917Z,23.38
2019-04-06T18:23:08.785Z,20.77
2019-04-06T18:25:38.265Z,24.45
2019-04-06T18:28:07.990Z,23.47
2019-04-06T18:30:37.505Z,22.32
2019-04-06T18:33:13.165Z,21.50
2019-04-06T18:35:42.831Z,22.93
2019-04-06T18:38:34.300Z,23.02
2019-04-06T18:41:03.800Z,23.60
2019-04-06T18:43:33.230Z,22.98
2019-04-06T18:46:02.679Z,22.70
2019-04-06T18:48:32.851Z,19.05
2019-04-06T18:51:02.423Z,20.43
2019-04-06T18:53:32.283Z,22.93
2019-04-06T18:56:02.149Z,20.40
2019-04-06T18:58:31.676Z,22.35
2019-04-06T19:01:01.074Z,23.30
2019-04-06T19:03:30.537Z,17.92
2019-04-06T19:06:00.635Z,19.77
2019-04-06T19:08:30.073Z,19.10
2019-04-06T19:11:00.038Z,18.95
2019-04-06T19:13:29.789Z,20.25
2019-04-06T19:15:59.319Z,19.17
2019-04-06T19:18:28.761Z,18.65
2019-04-06T19:20:58.433Z,19.23
2019-04-06T19:23:27.860Z,19.00
2019-04-06T19:25:57.310Z,19.95
2019-04-06T19:28:26.723Z,19.77
2019-04-06T19:30:56.436Z,18.95
2019-04-06T19:33:26.519Z,18.90
2019-04-06T19:35:56.445Z,22.07
2019-04-06T19:38:25.922Z,18.95
2019-04-06T19:40:55.516Z,20.43
2019-04-06T19:43:25.204Z,19.00
2019-04-06T19:45:54.676Z,17.27
2019-04-06T19:48:24.470Z,21.60
2019-04-06T19:50:54.281Z,18.20
2019-04-06T19:53:23.978Z,19.32
2019-04-06T19:55:53.424Z,17.80
2019-04-06T19:58:22.875Z,18.10
2019-04-06T20:00:52.437Z,21.50
2019-04-06T20:03:33.747Z,20.65
2019-04-06T20:05:53.041Z,17.27
2019-04-06T20:08:22.830Z,17.00
2019-04-06T20:10:52.195Z,16.82
2019-04-06T20:13:22.233Z,18.55
2019-04-06T20:15:51.843Z,20.17
2019-04-06T20:18:21.445Z,17.55
2019-04-06T20:20:50.836Z,19.32
2019-04-06T20:23:20.301Z,15.48
2019-04-06T20:25:50.336Z,15.32
2019-04-06T20:28:19.783Z,17.23
2019-04-06T20:30:49.248Z,21.57
2019-04-06T20:33:19.881Z,21.07
2019-04-06T20:35:49.921Z,16.65
2019-04-06T20:38:19.598Z,18.40
2019-04-06T20:40:49.431Z,16.75
2019-04-06T20:43:18.921Z,18.80
2019-04-06T20:45:48.857Z,18.87
2019-04-06T20:48:18.365Z,17.00
2019-04-06T20:50:47.817Z,18.95
2019-04-06T20:53:17.709Z,16.57
2019-04-06T20:55:47.191Z,16.35
2019-04-06T20:58:16.627Z,15.68
2019-04-06T21:00:46.227Z,16.77
2019-04-06T21:03:15.679Z,17.15
2019-04-06T21:05:45.360Z,15.28
2019-04-06T21:08:14.815Z,17.82
2019-04-06T21:10:44.263Z,18.30
2019-04-06T21:13:13.701Z,15.63
2019-04-06T21:15:43.612Z,15.80
2019-04-06T21:18:13.036Z,18.30
2019-04-06T21:20:43.128Z,16.70
2019-04-06T21:23:12.896Z,16.95
2019-04-06T21:25:43.020Z,19.25
2019-04-06T21:28:12.489Z,20.43
2019-04-06T21:30:41.924Z,17.12
2019-04-06T21:33:11.365Z,17.77
2019-04-06T21:35:40.820Z,16.17
2019-04-06T21:38:10.556Z,16.17
2019-04-06T21:40:39.985Z,17.40
2019-04-06T21:43:09.571Z,17.00
2019-04-06T21:45:39.318Z,18.05
2019-04-06T21:48:09.434Z,17.60
2019-04-06T21:50:38.945Z,16.73
2019-04-06T21:53:08.415Z,17.62
2019-04-06T21:55:37.878Z,16.30
2019-04-06T21:58:07.387Z,16.48
2019-04-06T22:00:43.604Z,16.65
2019-04-06T22:03:13.155Z,17.62
2019-04-06T22:05:42.723Z,14.87
2019-04-06T22:08:12.155Z,15.85
2019-04-06T22:10:42.318Z,17.12
2019-04-06T22:13:11.826Z,16.97
2019-04-06T22:15:41.421Z,16.70
2019-04-06T22:18:11.454Z,18.15
2019-04-06T22:20:41.088Z,16.35
2019-04-06T22:23:10.522Z,16.75
2019-04-06T22:25:39.975Z,15.90
2019-04-06T22:28:09.691Z,15.00
2019-04-06T22:30:40.484Z,14.87
2019-04-06T22:33:09.879Z,17.75
2019-04-06T22:35:39.351Z,15.83
2019-04-06T22:38:09.183Z,17.87
2019-04-06T22:40:38.619Z,17.00
2019-04-06T22:43:08.076Z,15.32
2019-04-06T22:45:37.642Z,16.82
2019-04-06T22:48:07.071Z,15.78
2019-04-06T22:50:36.610Z,18.55
2019-04-06T22:53:06.550Z,14.75
2019-04-06T22:55:36.015Z,16.82
2019-04-06T22:58:06.418Z,15.72
2019-04-06T23:01:00.551Z,15.25
2019-04-06T23:03:51.511Z,16.32
2019-04-06T23:06:32.276Z,15.20
2019-04-06T23:09:01.731Z,16.62
2019-04-06T23:11:31.204Z,15.85
2019-04-06T23:14:00.908Z,15.05
2019-04-06T23:16:31.442Z,13.90
2019-04-06T23:19:01.526Z,15.08
2019-04-06T23:21:31.637Z,18.12
2019-04-06T23:24:03.024Z,16.12
2019-04-06T23:26:32.891Z,15.32
2019-04-06T23:29:03.387Z,14.70
2019-04-06T23:31:33.460Z,16.42
2019-04-06T23:34:03.398Z,16.32
2019-04-06T23:36:33.031Z,15.50
2019-04-06T23:39:02.445Z,15.98
2019-04-06T23:41:32.297Z,14.20
2019-04-06T23:44:01.756Z,12.85
2019-04-06T23:46:31.212Z,13.75
2019-04-06T23:49:02.624Z,13.90
2019-04-06T23:51:31.832Z,14.50
2019-04-06T23:54:01.894Z,15.90
2019-04-06T23:56:31.405Z,14.85
2019-04-06T23:59:00.871Z,14.15
